Time;durP1;ratioP1;P1;durP2;ratioP2;P2;SDS_P1;SDS_P2;PMS_P1;PMS_P2;Temp;Humidity;BMP_temperature;BMP_pressure;BME280_temperature;BME280_humidity;BME280_pressure;Samples;Min_cycle;Max_cycle;Signal;HPM_P1;HPM_P2
2023/03/15 00:01:03;;;;;;;14.85;2.72;;;2.80;99.90;;;;;;5076546;28;20207;-76
2023/03/15 00:03:31;;;;;;;10.82;2.47;;;2.80;99.90;;;;;;5060696;28;20223;-75
2023/03/15 00:06:07;;;;;;;5.53;3.78;;;2.80;99.90;;;;;;5066389;28;20238;-75
2023/03/15 00:08:34;;;;;;;9.93;3.20;;;2.80;99.90;;;;;;5071841;28;20260;-76
2023/03/15 00:11:01;;;;;;;8.15;3.70;;;2.80;99.90;;;;;;5069755;28;20234;-75
2023/03/15 00:13:28;;;;;;;6.82;2.65;;;2.80;99.90;;;;;;5062760;28;20571;-77
2023/03/15 00:16:00;;;;;;;8.45;4.20;;;2.80;99.90;;;;;;5074985;28;20327;-75
2023/03/15 00:18:28;;;;;;;9.35;3.38;;;2.90;99.90;;;;;;5072534;28;20213;-76
2023/03/15 00:20:55;;;;;;;8.95;2.40;;;3.00;99.90;;;;;;5072167;28;20578;-75
2023/03/15 00:23:23;;;;;;;4.07;2.53;;;3.00;99.90;;;;;;5072055;28;20250;-76
2023/03/15 00:25:52;;;;;;;14.65;2.92;;;3.10;99.90;;;;;;5073184;28;20214;-75
2023/03/15 00:28:19;;;;;;;5.57;2.03;;;3.00;99.90;;;;;;5072016;28;20226;-76
2023/03/15 00:30:46;;;;;;;10.82;2.78;;;3.00;99.90;;;;;;5071511;28;20286;-77
2023/03/15 00:33:14;;;;;;;9.70;2.83;;;3.00;99.90;;;;;;5064877;28;20311;-76
2023/03/15 00:35:43;;;;;;;4.43;2.20;;;3.00;99.90;;;;;;5066678;28;20227;-77
2023/03/15 00:38:12;;;;;;;6.13;2.25;;;2.90;99.90;;;;;;5069140;28;20253;-76
2023/03/15 00:40:40;;;;;;;10.35;2.38;;;2.90;99.90;;;;;;5062189;28;20225;-75
2023/03/15 00:43:07;;;;;;;8.40;2.40;;;2.90;99.90;;;;;;5071317;28;20337;-76
2023/03/15 00:45:34;;;;;;;7.22;2.80;;;2.80;99.90;;;;;;5067528;28;20229;-76
2023/03/15 00:48:01;;;;;;;16.40;3.40;;;2.80;99.90;;;;;;5058103;28;20195;-76
2023/03/15 00:50:28;;;;;;;15.30;2.03;;;2.80;99.90;;;;;;5063437;28;20199;-77
2023/03/15 00:52:55;;;;;;;11.85;2.58;;;2.80;99.90;;;;;;5062632;28;20219;-77
2023/03/15 00:55:22;;;;;;;13.07;2.38;;;2.90;99.90;;;;;;5063628;28;20195;-77
2023/03/15 00:57:50;;;;;;;7.55;2.40;;;2.90;99.90;;;;;;5070991;28;20206;-75
2023/03/15 01:00:23;;;;;;;7.68;1.90;;;2.80;99.90;;;;;;5067121;28;20202;-77
2023/03/15 01:02:50;;;;;;;5.10;2.90;;;2.80;99.90;;;;;;5064930;28;20219;-76
2023/03/15 01:05:17;;;;;;;9.50;2.23;;;2.90;99.90;;;;;;5064899;28;20300;-76
2023/03/15 01:07:44;;;;;;;6.88;2.85;;;2.90;99.90;;;;;;5066493;28;20242;-77
2023/03/15 01:10:13;;;;;;;4.18;2.65;;;2.90;99.90;;;;;;5065331;28;20199;-76
2023/03/15 01:12:42;;;;;;;3.40;2.00;;;2.90;99.90;;;;;;5070214;28;20305;-76
2023/03/15 01:15:13;;;;;;;5.63;2.40;;;3.00;99.90;;;;;;5066482;28;20200;-76
2023/03/15 01:17:41;;;;;;;3.75;2.78;;;3.00;99.90;;;;;;5069812;28;20191;-75
2023/03/15 01:20:09;;;;;;;12.45;2.22;;;3.10;99.90;;;;;;5071321;28;20197;-75
2023/03/15 01:22:36;;;;;;;6.45;3.05;;;3.20;99.90;;;;;;5059846;28;20312;-75
2023/03/15 01:25:04;;;;;;;5.95;2.50;;;3.40;99.90;;;;;;5070987;28;20201;-77
2023/03/15 01:27:31;;;;;;;8.38;2.47;;;3.40;99.90;;;;;;5066943;28;20258;-76
2023/03/15 01:29:58;;;;;;;9.45;3.05;;;3.60;99.90;;;;;;5070654;28;20202;-76
2023/03/15 01:32:27;;;;;;;7.78;2.40;;;3.40;99.90;;;;;;5067732;28;20212;-75
2023/03/15 01:34:54;;;;;;;6.40;2.40;;;3.70;99.90;;;;;;5072283;28;20282;-76
2023/03/15 01:37:23;;;;;;;5.78;3.65;;;3.80;99.90;;;;;;5066720;28;20301;-76
2023/03/15 01:39:50;;;;;;;8.52;2.42;;;3.90;99.90;;;;;;5061082;28;20210;-75
2023/03/15 01:42:17;;;;;;;5.72;2.35;;;3.90;99.90;;;;;;5070102;28;20198;-76
2023/03/15 01:44:53;;;;;;;6.03;2.08;;;3.80;99.90;;;;;;5070682;28;20217;-76
2023/03/15 01:47:20;;;;;;;4.72;2.47;;;3.90;99.90;;;;;;5071668;28;20295;-75
2023/03/15 01:49:55;;;;;;;9.70;2.30;;;3.90;99.90;;;;;;5065510;28;20301;-75
2023/03/15 01:52:25;;;;;;;7.22;2.05;;;3.90;99.90;;;;;;5072079;28;20199;-76
2023/03/15 01:54:56;;;;;;;3.60;1.95;;;4.00;99.90;;;;;;5063983;28;20191;-74
2023/03/15 01:57:27;;;;;;;6.88;1.88;;;3.90;99.90;;;;;;5067797;28;20633;-75
2023/03/15 01:59:58;;;;;;;13.20;2.80;;;3.90;99.90;;;;;;5065665;28;20191;-76
2023/03/15 02:02:26;;;;;;;9.70;2.88;;;4.00;99.90;;;;;;5067953;28;20272;-77
2023/03/15 02:04:59;;;;;;;16.58;3.47;;;3.90;99.90;;;;;;5065793;28;20199;-76
2023/03/15 02:07:33;;;;;;;2.47;1.60;;;3.90;99.90;;;;;;5060196;28;20226;-75
2023/03/15 02:10:04;;;;;;;6.15;1.88;;;3.80;99.90;;;;;;5076385;28;20279;-76
2023/03/15 02:12:35;;;;;;;14.00;2.70;;;3.80;99.90;;;;;;5060311;28;20234;-75
2023/03/15 02:15:04;;;;;;;12.63;2.75;;;3.90;99.90;;;;;;5068811;28;20253;-76
2023/03/15 02:17:37;;;;;;;5.05;2.00;;;3.70;99.90;;;;;;5068881;28;20630;-77
2023/03/15 02:20:16;;;;;;;4.95;2.38;;;3.90;99.90;;;;;;5068439;28;20227;-75
2023/03/15 02:22:50;;;;;;;5.25;2.90;;;3.90;99.90;;;;;;5068706;28;20262;-76
2023/03/15 02:25:25;;;;;;;5.88;2.35;;;3.80;99.90;;;;;;5069494;28;20963;-76
2023/03/15 02:27:55;;;;;;;11.73;3.95;;;3.80;99.90;;;;;;5066417;28;20283;-75
2023/03/15 02:30:24;;;;;;;12.30;2.80;;;3.90;99.90;;;;;;5062333;28;20196;-76
2023/03/15 02:32:51;;;;;;;7.03;4.05;;;3.80;99.90;;;;;;5064101;28;20347;-76
2023/03/15 02:35:29;;;;;;;14.90;2.78;;;3.80;99.90;;;;;;5069287;28;20210;-76
2023/03/15 02:37:55;;;;;;;6.35;2.47;;;3.70;99.90;;;;;;5063113;28;20195;-76
2023/03/15 02:40:26;;;;;;;7.38;2.85;;;3.70;99.90;;;;;;5075152;28;20199;-75
2023/03/15 02:42:57;;;;;;;6.82;3.05;;;3.60;99.90;;;;;;5074642;28;20647;-76
2023/03/15 02:45:26;;;;;;;7.32;3.78;;;3.60;99.90;;;;;;5067939;28;20215;-76
2023/03/15 02:47:53;;;;;;;5.38;3.17;;;3.50;99.90;;;;;;5073222;28;20272;-76
2023/03/15 02:50:20;;;;;;;6.65;2.78;;;3.50;99.90;;;;;;5071085;28;20620;-76
2023/03/15 02:52:51;;;;;;;7.70;3.30;;;3.40;99.90;;;;;;5068239;28;20616;-74
2023/03/15 02:55:18;;;;;;;7.53;3.70;;;3.40;99.90;;;;;;5075290;28;20692;-76
2023/03/15 02:57:54;;;;;;;8.90;3.72;;;3.40;99.90;;;;;;5067942;28;20202;-75
2023/03/15 03:00:21;;;;;;;8.25;2.95;;;3.40;99.90;;;;;;5058570;28;20227;-75
2023/03/15 03:02:48;;;;;;;13.30;3.10;;;3.40;99.90;;;;;;5068563;28;20752;-75
2023/03/15 03:05:16;;;;;;;9.30;3.50;;;3.40;99.90;;;;;;5079301;28;20213;-76
2023/03/15 03:07:44;;;;;;;7.82;3.10;;;3.30;99.90;;;;;;5066189;28;20618;-75
2023/03/15 03:10:12;;;;;;;7.80;3.05;;;3.30;99.90;;;;;;5067433;28;20623;-75
2023/03/15 03:12:40;;;;;;;7.53;3.10;;;3.30;99.90;;;;;;5072222;28;20249;-76
2023/03/15 03:15:10;;;;;;;12.88;2.95;;;3.30;99.90;;;;;;5071294;28;20617;-78
2023/03/15 03:17:37;;;;;;;5.40;2.95;;;3.30;99.90;;;;;;5068106;28;20226;-75
2023/03/15 03:20:06;;;;;;;10.95;3.90;;;3.30;99.90;;;;;;5074612;28;20286;-76
2023/03/15 03:22:34;;;;;;;7.57;2.80;;;3.20;99.90;;;;;;5069054;28;20196;-75
2023/03/15 03:25:01;;;;;;;7.38;3.20;;;3.20;99.90;;;;;;5069352;28;20195;-75
2023/03/15 03:27:28;;;;;;;7.72;3.47;;;3.20;99.90;;;;;;5071761;28;20235;-74
2023/03/15 03:29:55;;;;;;;8.90;3.15;;;3.30;99.90;;;;;;5071292;28;20244;-75
2023/03/15 03:32:25;;;;;;;7.93;3.45;;;3.30;99.90;;;;;;5072133;28;20298;-75
2023/03/15 03:34:52;;;;;;;19.15;3.50;;;3.40;99.90;;;;;;5059514;28;20605;-75
2023/03/15 03:37:19;;;;;;;8.27;2.63;;;3.50;99.90;;;;;;5073789;28;20225;-77
2023/03/15 03:39:46;;;;;;;8.05;4.15;;;3.50;99.90;;;;;;5064243;28;20195;-76
2023/03/15 03:42:14;;;;;;;9.13;2.95;;;3.60;99.90;;;;;;5068843;28;20644;-76
2023/03/15 03:44:42;;;;;;;9.07;2.70;;;3.60;99.90;;;;;;5069991;28;20731;-76
2023/03/15 03:47:09;;;;;;;10.75;3.17;;;3.70;99.90;;;;;;5061733;28;20301;-75
2023/03/15 03:49:38;;;;;;;5.53;2.92;;;3.70;99.90;;;;;;5072482;28;20213;-75
2023/03/15 03:52:05;;;;;;;7.90;2.88;;;3.70;99.90;;;;;;5071710;28;20195;-75
2023/03/15 03:54:42;;;;;;;8.05;2.78;;;3.60;99.90;;;;;;5061859;28;20227;-76
2023/03/15 03:57:10;;;;;;;13.68;3.03;;;3.60;99.90;;;;;;5070851;28;20197;-74
2023/03/15 03:59:37;;;;;;;7.28;2.83;;;3.60;99.90;;;;;;5073134;28;20211;-76
2023/03/15 04:02:04;;;;;;;7.20;2.63;;;3.50;99.90;;;;;;5075335;28;20618;-75
2023/03/15 04:04:31;;;;;;;10.07;2.75;;;3.50;99.90;;;;;;5073081;28;20218;-77
2023/03/15 04:06:59;;;;;;;8.00;3.05;;;3.40;99.90;;;;;;5072982;28;20269;-77
2023/03/15 04:09:26;;;;;;;13.82;3.80;;;3.30;99.90;;;;;;5072687;28;20237;-75
2023/03/15 04:11:54;;;;;;;6.97;2.63;;;3.20;99.90;;;;;;5067334;28;20210;-75
2023/03/15 04:14:21;;;;;;;5.05;3.10;;;3.20;99.90;;;;;;5070511;28;20253;-76
2023/03/15 04:16:47;;;;;;;5.30;2.97;;;3.10;99.90;;;;;;5066754;28;20203;-76
2023/03/15 04:19:15;;;;;;;10.05;3.75;;;3.10;99.90;;;;;;5072046;28;20237;-73
2023/03/15 04:21:45;;;;;;;12.95;3.30;;;3.00;99.90;;;;;;5067737;28;20246;-76
2023/03/15 04:24:14;;;;;;;14.38;4.47;;;3.00;99.90;;;;;;5068349;28;20728;-76
2023/03/15 04:26:41;;;;;;;5.70;3.13;;;2.90;99.90;;;;;;5066414;28;20570;-76
2023/03/15 04:29:10;;;;;;;14.68;3.20;;;2.90;99.90;;;;;;5055728;28;20287;-76
2023/03/15 04:31:37;;;;;;;6.63;3.28;;;2.90;99.90;;;;;;5068083;28;20203;-75
2023/03/15 04:34:12;;;;;;;10.07;3.22;;;2.90;99.90;;;;;;5067983;28;20223;-76
2023/03/15 04:36:41;;;;;;;12.90;3.50;;;2.90;99.90;;;;;;5069779;28;20203;-76
2023/03/15 04:39:08;;;;;;;7.40;3.38;;;2.90;99.90;;;;;;5069678;28;20724;-75
2023/03/15 04:41:38;;;;;;;12.15;4.18;;;2.80;99.90;;;;;;5069581;28;20199;-76
2023/03/15 04:44:05;;;;;;;10.25;3.83;;;2.90;99.90;;;;;;5074088;28;20600;-76
2023/03/15 04:46:33;;;;;;;11.70;3.05;;;2.80;99.90;;;;;;5066179;28;20197;-75
2023/03/15 04:49:03;;;;;;;11.23;4.00;;;2.80;99.90;;;;;;5068504;28;20198;-76
2023/03/15 04:51:32;;;;;;;8.60;3.40;;;2.80;99.90;;;;;;5066001;28;20208;-76
2023/03/15 04:53:59;;;;;;;11.85;3.55;;;2.70;99.90;;;;;;5073010;28;20272;-76
2023/03/15 04:56:26;;;;;;;10.93;3.90;;;2.90;99.90;;;;;;5071655;28;20223;-75
2023/03/15 04:58:54;;;;;;;6.20;3.17;;;2.70;99.90;;;;;;5073245;28;20687;-74
2023/03/15 05:01:25;;;;;;;10.82;4.03;;;2.70;99.90;;;;;;5060591;28;20249;-75
2023/03/15 05:03:52;;;;;;;6.57;3.88;;;2.60;99.90;;;;;;5066725;28;20266;-75
2023/03/15 05:06:19;;;;;;;13.50;4.00;;;2.60;99.90;;;;;;5066733;28;20198;-75
2023/03/15 05:08:46;;;;;;;12.57;3.90;;;2.60;99.90;;;;;;5067781;28;20210;-76
2023/03/15 05:11:13;;;;;;;11.27;4.75;;;2.50;99.90;;;;;;5068769;28;20231;-76
2023/03/15 05:13:41;;;;;;;9.68;5.53;;;2.50;99.90;;;;;;5061494;28;20739;-76
2023/03/15 05:16:09;;;;;;;10.43;3.95;;;2.50;99.90;;;;;;5065622;28;20233;-76
2023/03/15 05:18:36;;;;;;;9.98;4.22;;;2.50;99.90;;;;;;5071289;28;20226;-76
2023/03/15 05:21:04;;;;;;;8.13;4.05;;;2.40;99.90;;;;;;5068636;28;20209;-76
2023/03/15 05:23:33;;;;;;;10.95;5.25;;;2.40;99.90;;;;;;5071922;28;20233;-76
2023/03/15 05:26:00;;;;;;;12.20;4.32;;;2.40;99.90;;;;;;5059644;28;20210;-76
2023/03/15 05:28:27;;;;;;;6.28;4.95;;;2.50;99.90;;;;;;5070483;28;20228;-76
2023/03/15 05:30:54;;;;;;;6.68;3.97;;;2.40;99.90;;;;;;5071215;28;20278;-75
2023/03/15 05:33:23;;;;;;;12.48;5.43;;;2.40;99.90;;;;;;5071377;28;20257;-75
2023/03/15 05:35:51;;;;;;;16.00;5.03;;;2.40;99.90;;;;;;5068483;28;20222;-76
2023/03/15 05:38:18;;;;;;;10.73;4.80;;;2.40;99.90;;;;;;5068576;28;20562;-76
2023/03/15 05:40:46;;;;;;;6.45;4.03;;;2.40;99.90;;;;;;5068926;28;20230;-76
2023/03/15 05:43:13;;;;;;;16.27;6.50;;;2.40;99.90;;;;;;5070084;28;20298;-75
2023/03/15 05:45:43;;;;;;;14.05;5.55;;;2.40;99.90;;;;;;5068584;28;20218;-76
2023/03/15 05:48:10;;;;;;;11.60;5.68;;;2.40;99.90;;;;;;5070937;28;20624;-76
2023/03/15 05:50:38;;;;;;;11.02;8.02;;;2.40;99.90;;;;;;5070482;28;20291;-76
2023/03/15 05:53:05;;;;;;;9.70;5.30;;;2.40;99.90;;;;;;5068858;28;20219;-75
2023/03/15 05:55:35;;;;;;;11.65;4.47;;;2.40;99.90;;;;;;5071247;28;20268;-76
2023/03/15 05:58:02;;;;;;;13.77;5.47;;;2.50;99.90;;;;;;5065851;28;20249;-74
2023/03/15 06:00:31;;;;;;;18.02;6.82;;;2.50;99.90;;;;;;5065475;28;20262;-78
2023/03/15 06:02:58;;;;;;;15.77;6.55;;;2.50;99.90;;;;;;5060113;28;20272;-76
2023/03/15 06:05:25;;;;;;;12.20;6.03;;;2.50;99.90;;;;;;5066130;28;20240;-76
2023/03/15 06:07:53;;;;;;;10.70;5.40;;;2.50;99.90;;;;;;5069153;28;20316;-75
2023/03/15 06:10:20;;;;;;;17.92;5.15;;;2.60;99.90;;;;;;5067876;28;20201;-75
2023/03/15 06:12:47;;;;;;;10.82;4.15;;;2.60;99.90;;;;;;5071226;28;20313;-75
2023/03/15 06:15:14;;;;;;;12.32;4.80;;;2.60;99.90;;;;;;5067067;28;20203;-75
2023/03/15 06:17:41;;;;;;;12.00;4.80;;;2.60;99.90;;;;;;5069128;28;20564;-75
2023/03/15 06:20:09;;;;;;;9.25;4.28;;;2.60;99.90;;;;;;5067249;28;20560;-74
2023/03/15 06:22:37;;;;;;;6.18;3.70;;;2.60;99.90;;;;;;5062819;28;20195;-74
2023/03/15 06:25:06;;;;;;;11.75;4.50;;;2.70;99.90;;;;;;5064673;28;20199;-74
2023/03/15 06:27:34;;;;;;;10.75;4.50;;;2.70;99.90;;;;;;5070567;28;20633;-77
2023/03/15 06:30:01;;;;;;;11.40;3.92;;;2.80;99.90;;;;;;5073862;28;20201;-76
2023/03/15 06:32:28;;;;;;;6.60;3.40;;;2.80;99.90;;;;;;5067916;28;20666;-78
2023/03/15 06:34:55;;;;;;;6.47;3.50;;;2.80;99.90;;;;;;5058394;28;20202;-77
2023/03/15 06:37:23;;;;;;;8.68;3.90;;;2.90;99.90;;;;;;5063192;28;20222;-78
2023/03/15 06:39:52;;;;;;;11.73;5.40;;;3.00;99.90;;;;;;5068710;28;20199;-75
2023/03/15 06:42:22;;;;;;;8.15;4.35;;;3.10;99.90;;;;;;5068908;28;20198;-76
2023/03/15 06:44:50;;;;;;;9.10;4.50;;;3.20;99.90;;;;;;5061443;28;20221;-75
2023/03/15 06:47:17;;;;;;;4.70;3.30;;;3.30;99.90;;;;;;5057016;28;20234;-75
2023/03/15 06:49:49;;;;;;;14.63;4.10;;;3.60;99.90;;;;;;5068307;28;20224;-75
2023/03/15 06:52:16;;;;;;;11.10;4.00;;;4.20;99.90;;;;;;5074373;28;20555;-76
2023/03/15 06:54:43;;;;;;;3.67;2.75;;;5.00;99.90;;;;;;5062888;28;20207;-74
2023/03/15 06:57:10;;;;;;;8.32;2.60;;;5.80;99.90;;;;;;5068514;28;20725;-75
2023/03/15 06:59:40;;;;;;;12.02;3.72;;;6.70;99.90;;;;;;5063937;28;20203;-76
2023/03/15 07:02:07;;;;;;;6.32;3.10;;;7.50;99.90;;;;;;5068729;28;20233;-76
2023/03/15 07:04:34;;;;;;;5.80;2.88;;;8.30;99.90;;;;;;5071281;28;20309;-75
2023/03/15 07:07:01;;;;;;;7.88;2.72;;;8.90;99.90;;;;;;5074171;28;20199;-75
2023/03/15 07:09:28;;;;;;;9.63;2.92;;;9.10;99.90;;;;;;5072958;28;20258;-76
2023/03/15 07:11:54;;;;;;;6.60;3.50;;;9.10;99.90;;;;;;5067327;28;20195;-76
2023/03/15 07:14:22;;;;;;;12.52;3.90;;;8.60;99.90;;;;;;5073456;28;20233;-74
2023/03/15 07:16:50;;;;;;;5.85;2.45;;;7.90;99.90;;;;;;5073531;28;20202;-76
2023/03/15 07:19:17;;;;;;;7.40;3.45;;;7.40;99.90;;;;;;5074680;28;20230;-77
2023/03/15 07:21:44;;;;;;;6.18;2.75;;;7.30;99.90;;;;;;5072447;28;20289;-75
2023/03/15 07:24:11;;;;;;;10.77;2.50;;;7.60;99.90;;;;;;5074580;28;20228;-75
2023/03/15 07:26:38;;;;;;;5.45;1.85;;;8.10;99.90;;;;;;5074089;28;20256;-75
2023/03/15 07:29:06;;;;;;;9.32;2.58;;;8.40;99.90;;;;;;5073738;28;20634;-75
2023/03/15 07:31:33;;;;;;;3.33;2.05;;;9.30;99.90;;;;;;5063302;28;20726;-73
2023/03/15 07:34:03;;;;;;;8.20;2.22;;;9.50;99.90;;;;;;5071549;28;20225;-71
2023/03/15 07:36:31;;;;;;;5.57;2.47;;;9.80;99.90;;;;;;5070042;28;20204;-73
2023/03/15 07:38:58;;;;;;;4.65;1.88;;;10.80;99.90;;;;;;5070918;28;20587;-73
2023/03/15 07:41:25;;;;;;;9.60;3.00;;;10.10;98.60;;;;;;5068943;28;20231;-73
2023/03/15 07:43:52;;;;;;;8.15;3.25;;;9.00;99.90;;;;;;5070039;28;20257;-72
2023/03/15 07:46:18;;;;;;;4.68;1.88;;;8.50;99.90;;;;;;5073505;28;20207;-73
2023/03/15 07:48:45;;;;;;;6.55;1.65;;;8.00;99.90;;;;;;5068018;28;20211;-74
2023/03/15 07:51:14;;;;;;;11.00;2.80;;;8.10;99.90;;;;;;5069469;28;20653;-75
2023/03/15 07:53:41;;;;;;;8.07;2.20;;;9.30;99.90;;;;;;5071423;28;20270;-73
2023/03/15 07:56:08;;;;;;;6.45;2.22;;;10.90;99.80;;;;;;5065266;28;20212;-72
2023/03/15 07:58:35;;;;;;;3.60;1.70;;;11.70;94.40;;;;;;5063130;28;20211;-73
2023/03/15 08:01:02;;;;;;;4.20;1.70;;;12.50;92.20;;;;;;5056849;28;20231;-75
2023/03/15 08:03:30;;;;;;;3.90;1.45;;;12.50;90.60;;;;;;5062097;28;20219;-73
2023/03/15 08:05:57;;;;;;;4.72;2.10;;;13.20;90.30;;;;;;5063757;28;20195;-73
2023/03/15 08:08:26;;;;;;;2.53;1.33;;;13.40;89.00;;;;;;5069041;28;20211;-75
2023/03/15 08:10:54;;;;;;;3.75;1.45;;;13.80;87.10;;;;;;5070962;28;20274;-72
2023/03/15 08:13:23;;;;;;;6.78;1.80;;;14.30;85.60;;;;;;5064666;28;20237;-73
2023/03/15 08:15:49;;;;;;;10.47;2.20;;;15.30;84.00;;;;;;5060140;28;20210;-71
2023/03/15 08:18:17;;;;;;;11.90;2.10;;;15.70;81.10;;;;;;5066365;28;20799;-74
2023/03/15 08:20:44;;;;;;;5.90;1.70;;;15.90;79.90;;;;;;5068896;28;20477;-73
2023/03/15 08:23:15;;;;;;;5.93;1.37;;;15.30;78.20;;;;;;5063793;28;20986;-73
2023/03/15 08:25:45;;;;;;;4.05;1.52;;;14.50;78.20;;;;;;5066092;28;20482;-72
2023/03/15 08:28:12;;;;;;;5.03;2.08;;;14.40;80.50;;;;;;5073803;28;20303;-73
2023/03/15 08:30:39;;;;;;;5.10;1.70;;;14.70;80.70;;;;;;5066686;28;20670;-74
2023/03/15 08:33:08;;;;;;;5.70;1.57;;;15.10;79.90;;;;;;5066826;28;20478;-73
2023/03/15 08:35:35;;;;;;;8.10;1.77;;;15.80;78.70;;;;;;5068272;28;20500;-73
2023/03/15 08:38:02;;;;;;;6.10;1.97;;;15.70;76.30;;;;;;5064137;28;20931;-75
2023/03/15 08:40:30;;;;;;;9.23;2.40;;;15.40;77.80;;;;;;5069156;28;20488;-73
2023/03/15 08:43:00;;;;;;;6.90;1.80;;;15.80;77.50;;;;;;5070894;28;21029;-74
2023/03/15 08:45:28;;;;;;;5.97;2.10;;;16.60;77.70;;;;;;5069162;28;20461;-74
2023/03/15 08:47:55;;;;;;;5.53;2.07;;;16.20;75.60;;;;;;5071825;28;20469;-75
2023/03/15 08:50:26;;;;;;;3.77;2.40;;;17.00;79.90;;;;;;5080118;28;20480;-73
2023/03/15 08:52:52;;;;;;;5.63;1.90;;;17.70;78.70;;;;;;5070421;28;20870;-75
2023/03/15 08:55:20;;;;;;;9.13;2.43;;;17.60;73.30;;;;;;5079668;28;20931;-76
2023/03/15 08:57:47;;;;;;;10.63;2.30;;;17.50;74.30;;;;;;5058657;28;21211;-75
2023/03/15 09:00:16;;;;;;;7.90;2.20;;;17.90;75.10;;;;;;5063035;28;20625;-74
2023/03/15 09:02:44;;;;;;;7.83;2.90;;;17.50;71.40;;;;;;5070930;28;20556;-74
2023/03/15 09:05:11;;;;;;;3.07;2.13;;;17.60;74.30;;;;;;5073559;28;20445;-75
2023/03/15 09:07:41;;;;;;;5.33;2.73;;;17.30;72.40;;;;;;5064496;28;20492;-76
2023/03/15 09:10:12;;;;;;;3.70;1.70;;;17.40;72.20;;;;;;5067214;28;20487;-74
2023/03/15 09:12:39;;;;;;;6.07;2.10;;;17.40;71.30;;;;;;5065026;28;20524;-74
2023/03/15 09:15:07;;;;;;;10.20;3.40;;;17.20;73.10;;;;;;5069902;28;20522;-74
2023/03/15 09:17:36;;;;;;;5.33;1.70;;;17.40;71.30;;;;;;5055576;28;20488;-76
2023/03/15 09:20:11;;;;;;;6.20;2.57;;;18.10;71.90;;;;;;5059369;28;20457;-74
2023/03/15 09:22:38;;;;;;;13.70;2.23;;;18.30;68.90;;;;;;5065804;28;20489;-76
2023/03/15 09:25:07;;;;;;;8.60;2.37;;;17.80;70.30;;;;;;5061500;28;20454;-75
2023/03/15 09:27:34;;;;;;;6.10;2.00;;;17.90;70.90;;;;;;5067514;28;20446;-75
2023/03/15 09:30:01;;;;;;;5.70;2.20;;;18.00;70.00;;;;;;5076490;28;20574;-75
2023/03/15 09:32:28;;;;;;;5.73;2.30;;;17.90;68.80;;;;;;5067890;28;20470;-74
2023/03/15 09:34:57;;;;;;;7.40;2.30;;;17.70;70.50;;;;;;5067166;28;20465;-75
2023/03/15 09:37:25;;;;;;;5.90;1.90;;;18.10;70.50;;;;;;5069338;28;20448;-74
2023/03/15 09:39:53;;;;;;;5.83;2.20;;;17.10;67.10;;;;;;5062049;28;20476;-75
2023/03/15 09:42:28;;;;;;;8.07;2.40;;;17.10;71.80;;;;;;5059768;28;20917;-73
2023/03/15 09:45:07;;;;;;;3.90;1.73;;;16.60;70.20;;;;;;5059822;28;20508;-75
2023/03/15 09:47:42;;;;;;;8.00;1.90;;;17.20;69.90;;;;;;5065355;28;20448;-76
2023/03/15 09:50:20;;;;;;;6.37;2.00;;;14.20;71.50;;;;;;5064340;28;20479;-74
2023/03/15 09:52:51;;;;;;;5.25;1.63;;;14.80;75.30;;;;;;5064673;28;20473;-74
2023/03/15 09:55:22;;;;;;;9.30;1.90;;;15.40;74.00;;;;;;5067095;28;20267;-73
2023/03/15 09:57:52;;;;;;;3.60;1.57;;;15.90;71.90;;;;;;5065065;28;20540;-72
2023/03/15 10:00:21;;;;;;;4.50;1.93;;;16.40;73.20;;;;;;5057484;28;20444;-75
2023/03/15 10:02:58;;;;;;;11.77;3.00;;;16.50;69.40;;;;;;5067746;28;20541;-74
2023/03/15 10:05:35;;;;;;;5.07;2.35;;;15.30;70.30;;;;;;5065550;28;20199;-75
2023/03/15 10:08:01;;;;;;;7.82;1.80;;;14.10;71.30;;;;;;5072434;28;20217;-74
2023/03/15 10:10:35;;;;;;;4.40;2.25;;;13.30;77.20;;;;;;5065390;28;20301;-74
2023/03/15 10:13:13;;;;;;;5.78;2.00;;;13.40;77.10;;;;;;5064044;28;20218;-75
2023/03/15 10:15:59;;;;;;;14.27;2.25;;;13.30;75.50;;;;;;5068739;28;20261;-75
2023/03/15 10:18:38;;;;;;;4.38;1.58;;;13.10;74.70;;;;;;5068779;28;20238;-76
2023/03/15 10:21:13;;;;;;;11.02;2.03;;;13.50;74.10;;;;;;5066857;28;20225;-75
2023/03/15 10:23:46;;;;;;;3.63;2.00;;;13.70;73.10;;;;;;5064816;28;20237;-74
2023/03/15 10:26:18;;;;;;;6.00;2.25;;;12.10;81.70;;;;;;5061597;28;20215;-73
2023/03/15 10:28:46;;;;;;;10.85;1.55;;;10.70;89.70;;;;;;5061143;28;20266;-73
2023/03/15 10:31:14;;;;;;;11.93;2.00;;;10.30;93.10;;;;;;5061287;28;20202;-73
2023/03/15 10:33:44;;;;;;;5.32;1.35;;;10.00;95.00;;;;;;5073095;28;20258;-74
2023/03/15 10:36:17;;;;;;;6.10;1.52;;;9.40;97.70;;;;;;5066055;28;20203;-74
2023/03/15 10:38:44;;;;;;;8.75;1.73;;;8.80;99.90;;;;;;5070870;28;20213;-73
2023/03/15 10:41:14;;;;;;;4.90;1.70;;;8.30;99.90;;;;;;5069114;28;20213;-76
2023/03/15 10:43:41;;;;;;;6.25;1.90;;;7.80;99.90;;;;;;5068158;28;20268;-74
2023/03/15 10:46:10;;;;;;;10.48;4.75;;;7.40;99.90;;;;;;5072696;28;20248;-75
2023/03/15 10:48:40;;;;;;;7.63;2.90;;;7.00;99.90;;;;;;5074101;28;20672;-74
2023/03/15 10:51:14;;;;;;;7.47;2.85;;;6.70;99.90;;;;;;5061025;28;20285;-75
2023/03/15 10:53:53;;;;;;;6.40;2.08;;;6.40;99.90;;;;;;5063997;28;20309;-75
2023/03/15 10:56:25;;;;;;;6.88;2.15;;;6.10;99.90;;;;;;5071331;28;20625;-75
2023/03/15 10:58:58;;;;;;;3.00;1.40;;;5.70;99.90;;;;;;5065026;28;20279;-77
2023/03/15 11:01:26;;;;;;;2.45;1.35;;;5.50;99.90;;;;;;5066930;28;20222;-73
2023/03/15 11:04:16;;;;;;;7.25;1.73;;;5.10;99.90;;;;;;5068571;28;20223;-77
2023/03/15 11:06:45;;;;;;;1.52;1.20;;;5.00;99.90;;;;;;5069352;28;20230;-73
2023/03/15 11:09:21;;;;;;;6.25;1.48;;;5.00;99.90;;;;;;5057532;28;20232;-74
2023/03/15 11:12:02;;;;;;;3.58;1.67;;;4.80;99.90;;;;;;5066032;28;20211;-74
2023/03/15 11:14:34;;;;;;;4.38;2.78;;;4.70;99.90;;;;;;5081825;28;20226;-77
2023/03/15 11:17:04;;;;;;;2.22;1.63;;;4.70;99.90;;;;;;5063985;28;20283;-74
2023/03/15 11:19:36;;;;;;;1.83;1.00;;;4.70;99.90;;;;;;5056270;28;20204;-75
2023/03/15 11:22:03;;;;;;;4.80;1.40;;;4.80;99.90;;;;;;5064431;28;20274;-73
2023/03/15 11:24:38;;;;;;;3.58;1.35;;;5.00;99.90;;;;;;5070415;28;20219;-73
2023/03/15 11:27:14;;;;;;;6.50;1.48;;;5.20;99.90;;;;;;5069825;28;20198;-74
2023/03/15 11:29:47;;;;;;;4.45;1.20;;;5.50;99.90;;;;;;5069061;28;20215;-73
2023/03/15 11:32:18;;;;;;;4.15;1.27;;;5.70;99.90;;;;;;5070685;28;20607;-75
2023/03/15 11:34:50;;;;;;;2.25;1.30;;;6.00;99.90;;;;;;5069839;28;20238;-76
2023/03/15 11:37:20;;;;;;;1.77;1.25;;;6.20;99.90;;;;;;5071686;28;20726;-75
2023/03/15 11:39:56;;;;;;;3.70;1.45;;;6.50;99.90;;;;;;5084438;28;20231;-74
2023/03/15 11:42:29;;;;;;;4.40;1.55;;;7.10;99.90;;;;;;5089032;28;20308;-76
2023/03/15 11:45:01;;;;;;;2.60;1.60;;;7.50;99.90;;;;;;5079874;28;20213;-75
2023/03/15 11:47:41;;;;;;;2.17;1.10;;;7.80;99.90;;;;;;5073329;28;20207;-75
2023/03/15 11:50:13;;;;;;;2.13;1.20;;;8.00;99.90;;;;;;5057720;28;20265;-73
2023/03/15 11:52:41;;;;;;;2.80;1.10;;;8.10;99.90;;;;;;5062673;28;20262;-74
2023/03/15 11:55:18;;;;;;;2.65;1.13;;;8.20;99.90;;;;;;5070605;28;20545;-73
2023/03/15 11:57:46;;;;;;;7.93;2.88;;;8.00;99.90;;;;;;5070705;28;20644;-74
2023/03/15 12:00:36;;;;;;;6.32;1.88;;;7.80;99.90;;;;;;5054497;28;20195;-75
2023/03/15 12:03:34;;;;;;;4.78;1.30;;;7.90;99.90;;;;;;5055248;28;20237;-73
2023/03/15 12:06:05;;;;;;;2.95;1.75;;;8.00;99.90;;;;;;5073882;28;20210;-76
2023/03/15 12:08:47;;;;;;;4.07;1.88;;;8.00;99.90;;;;;;5067510;28;20302;-75
2023/03/15 12:11:39;;;;;;;2.80;1.40;;;8.00;99.90;;;;;;5060548;28;20250;-74
2023/03/15 12:14:25;;;;;;;4.25;2.08;;;7.80;99.90;;;;;;5069691;28;20306;-74
2023/03/15 12:16:57;;;;;;;2.97;2.15;;;7.50;99.90;;;;;;5062201;28;20638;-74
2023/03/15 12:19:26;;;;;;;2.05;1.60;;;7.20;99.90;;;;;;5070377;28;20247;-74
2023/03/15 12:21:56;;;;;;;3.78;1.60;;;7.40;99.90;;;;;;5067789;28;20246;-73
2023/03/15 12:24:26;;;;;;;3.97;1.10;;;7.50;99.90;;;;;;5069951;28;20318;-74
2023/03/15 12:27:03;;;;;;;4.18;1.60;;;7.90;99.90;;;;;;5060726;28;20231;-75
2023/03/15 12:29:32;;;;;;;2.50;1.30;;;8.50;99.90;;;;;;5071901;28;20222;-75
2023/03/15 12:32:08;;;;;;;4.63;2.30;;;8.90;99.90;;;;;;5059976;28;20199;-75
2023/03/15 12:34:49;;;;;;;4.60;1.30;;;9.30;99.90;;;;;;5064935;28;20229;-75
2023/03/15 12:37:23;;;;;;;5.57;1.30;;;9.40;99.90;;;;;;5066273;28;20665;-73
2023/03/15 12:39:51;;;;;;;4.50;1.30;;;9.40;99.90;;;;;;5063515;28;20276;-75
2023/03/15 12:43:01;;;;;;;3.03;1.38;;;9.60;99.90;;;;;;5073135;28;20206;-74
2023/03/15 12:45:44;;;;;;;3.42;1.38;;;9.50;99.90;;;;;;5059843;28;20233;-75
2023/03/15 12:48:25;;;;;;;3.22;1.33;;;9.20;99.90;;;;;;5068837;28;20285;-73
2023/03/15 12:51:04;;;;;;;2.25;1.40;;;9.00;99.90;;;;;;5069767;28;20249;-73
2023/03/15 12:53:50;;;;;;;2.88;1.20;;;8.80;99.90;;;;;;5066560;28;20258;-74
2023/03/15 12:56:33;;;;;;;2.75;1.40;;;8.50;99.90;;;;;;5061852;28;20282;-75
2023/03/15 12:59:07;;;;;;;3.53;1.20;;;8.20;99.90;;;;;;5061178;28;20198;-73
2023/03/15 13:01:35;;;;;;;4.07;1.23;;;7.70;99.90;;;;;;5057349;28;20263;-72
2023/03/15 13:04:02;;;;;;;12.48;2.00;;;7.30;99.90;;;;;;5067026;28;20226;-73
2023/03/15 13:06:43;;;;;;;1.83;1.05;;;7.50;99.90;;;;;;5068636;28;20202;-75